createdAt,value
2023-04-15T00:01:04.028Z,2.70
2023-04-15T00:03:13.170Z,2.90
2023-04-15T00:05:23.453Z,2.53
2023-04-15T00:07:32.081Z,3.10
2023-04-15T00:09:40.776Z,2.87
2023-04-15T00:11:50.077Z,2.70
2023-04-15T00:13:59.467Z,2.67
2023-04-15T00:16:09.161Z,2.80
2023-04-15T00:18:18.393Z,2.37
2023-04-15T00:20:29.168Z,3.20
2023-04-15T00:22:38.151Z,3.27
2023-04-15T00:24:46.671Z,3.10
2023-04-15T00:26:55.362Z,2.80
2023-04-15T00:29:04.474Z,3.17
2023-04-15T00:31:13.210Z,2.97
2023-04-15T00:33:22.236Z,3.17
2023-04-15T00:35:33.405Z,3.37
2023-04-15T00:37:43.652Z,2.70
2023-04-15T00:39:54.444Z,2.50
2023-04-15T00:42:03.528Z,2.80
2023-04-15T00:44:12.228Z,3.33
2023-04-15T00:46:21.720Z,2.87
2023-04-15T00:48:30.973Z,2.63
2023-04-15T00:50:41.106Z,2.70
2023-04-15T00:52:49.852Z,3.40
2023-04-15T00:54:58.772Z,3.20
2023-04-15T00:57:08.080Z,3.40
2023-04-15T00:59:17.373Z,2.73
2023-04-15T01:01:27.316Z,2.83
2023-04-15T01:03:36.671Z,2.70
2023-04-15T01:05:47.329Z,3.00
2023-04-15T01:07:57.627Z,3.07
2023-04-15T01:10:07.355Z,2.83
2023-04-15T01:12:17.077Z,3.03
2023-04-15T01:14:26.750Z,2.73
2023-04-15T01:16:36.222Z,3.27
2023-04-15T01:18:45.462Z,3.13
2023-04-15T01:20:56.006Z,2.80
2023-04-15T01:23:04.893Z,2.87
2023-04-15T01:25:14.996Z,2.73
2023-04-15T01:27:25.283Z,3.00
2023-04-15T01:29:34.414Z,2.97
2023-04-15T01:31:43.713Z,2.37
2023-04-15T01:33:53.025Z,2.60
2023-04-15T01:36:01.714Z,3.00
2023-04-15T01:38:12.149Z,3.17
2023-04-15T01:40:20.939Z,2.73
2023-04-15T01:42:31.505Z,3.00
2023-04-15T01:44:40.395Z,3.20
2023-04-15T01:46:49.645Z,2.60
2023-04-15T01:48:58.748Z,3.00
2023-04-15T01:51:08.588Z,2.83
2023-04-15T01:53:17.668Z,3.10
2023-04-15T01:55:26.585Z,3.10
2023-04-15T01:57:37.383Z,2.83
2023-04-15T01:59:46.195Z,2.53
2023-04-15T02:01:55.472Z,3.03
2023-04-15T02:04:04.230Z,2.83
2023-04-15T02:06:13.220Z,3.07
2023-04-15T02:08:21.859Z,2.77
2023-04-15T02:10:30.742Z,3.10
2023-04-15T02:12:41.510Z,2.90
2023-04-15T02:14:50.523Z,2.80
2023-04-15T02:17:06.822Z,3.07
2023-04-15T02:19:15.986Z,2.37
2023-04-15T02:21:24.913Z,3.13
2023-04-15T02:23:33.637Z,2.83
2023-04-15T02:25:42.239Z,2.93
2023-04-15T02:28:04.017Z,3.30
2023-04-15T02:30:13.224Z,2.93
2023-04-15T02:32:25.546Z,3.20
2023-04-15T02:34:34.581Z,2.10
2023-04-15T02:36:43.270Z,2.73
2023-04-15T02:38:52.059Z,3.10
2023-04-15T02:41:01.267Z,2.50
2023-04-15T02:43:12.335Z,2.90
2023-04-15T02:45:24.296Z,3.17
2023-04-15T02:47:33.026Z,3.10
2023-04-15T02:49:42.077Z,3.53
2023-04-15T02:51:51.408Z,3.07
2023-04-15T02:54:00.294Z,3.17
2023-04-15T02:56:09.774Z,3.00
2023-04-15T02:58:19.899Z,2.83
2023-04-15T03:00:28.715Z,2.57
2023-04-15T03:02:37.873Z,2.53
2023-04-15T03:04:47.096Z,3.07
2023-04-15T03:06:55.994Z,3.00
2023-04-15T03:09:04.944Z,3.33
2023-04-15T03:11:14.621Z,2.70
2023-04-15T03:13:25.179Z,2.80
2023-04-15T03:15:35.730Z,3.10
2023-04-15T03:17:44.625Z,2.37
2023-04-15T03:19:53.736Z,3.23
2023-04-15T03:22:02.657Z,2.70
2023-04-15T03:24:11.579Z,3.03
2023-04-15T03:26:27.311Z,2.27
2023-04-15T03:28:37.656Z,2.67
2023-04-15T03:30:46.538Z,2.90
2023-04-15T03:32:55.684Z,2.83
2023-04-15T03:35:04.568Z,3.33
2023-04-15T03:37:14.074Z,3.40
2023-04-15T03:39:23.087Z,2.93
2023-04-15T03:41:33.261Z,3.00
2023-04-15T03:43:43.612Z,2.40
2023-04-15T03:45:52.469Z,2.63
2023-04-15T03:48:15.550Z,2.93
2023-04-15T03:50:25.061Z,2.73
2023-04-15T03:52:34.365Z,2.90
2023-04-15T03:54:43.086Z,2.97
2023-04-15T03:56:51.810Z,2.97
2023-04-15T03:59:02.606Z,2.97
2023-04-15T04:01:12.631Z,3.20
2023-04-15T04:03:21.724Z,2.50
2023-04-15T04:05:30.968Z,2.57
2023-04-15T04:07:39.905Z,2.83
2023-04-15T04:09:48.919Z,2.40
2023-04-15T04:11:58.113Z,3.00
2023-04-15T04:14:08.273Z,2.90
2023-04-15T04:16:17.713Z,2.60
2023-04-15T04:18:26.987Z,2.40
2023-04-15T04:20:36.190Z,2.83
2023-04-15T04:22:44.959Z,3.27
2023-04-15T04:24:53.464Z,2.90
2023-04-15T04:27:02.411Z,3.07
2023-04-15T04:29:13.033Z,3.20
2023-04-15T04:31:21.813Z,3.20
2023-04-15T04:33:30.705Z,2.47
2023-04-15T04:35:39.703Z,3.07
2023-04-15T04:37:48.500Z,2.70
2023-04-15T04:39:57.458Z,2.93
2023-04-15T04:42:06.637Z,2.57
2023-04-15T04:44:17.251Z,2.33
2023-04-15T04:46:26.091Z,2.90
2023-04-15T04:48:35.296Z,2.63
2023-04-15T04:50:44.374Z,3.17
2023-04-15T04:52:53.499Z,3.03
2023-04-15T04:55:02.527Z,3.00
2023-04-15T04:57:13.742Z,2.70
2023-04-15T04:59:24.586Z,2.80
2023-04-15T05:01:34.065Z,3.00
2023-04-15T05:03:43.531Z,2.53
2023-04-15T05:05:52.141Z,3.07
2023-04-15T05:08:01.349Z,2.90
2023-04-15T05:10:10.993Z,2.70
2023-04-15T05:12:19.625Z,2.77
2023-04-15T05:14:29.696Z,2.37
2023-04-15T05:16:38.379Z,2.73
2023-04-15T05:18:47.446Z,2.70
2023-04-15T05:20:56.217Z,3.23
2023-04-15T05:23:05.162Z,2.77
2023-04-15T05:25:14.257Z,3.07
2023-04-15T05:27:24.319Z,2.57
2023-04-15T05:29:34.782Z,2.37
2023-04-15T05:31:43.547Z,2.87
2023-04-15T05:33:52.368Z,2.23
2023-04-15T05:36:01.384Z,2.33
2023-04-15T05:38:10.498Z,2.50
2023-04-15T05:40:20.384Z,2.67
2023-04-15T05:42:29.568Z,2.47
2023-04-15T05:44:39.708Z,2.47
2023-04-15T05:46:48.560Z,2.90
2023-04-15T05:48:57.081Z,2.20
2023-04-15T05:51:06.618Z,2.53
2023-04-15T05:53:15.503Z,2.63
2023-04-15T05:55:24.516Z,2.23
2023-04-15T05:57:33.634Z,2.50
2023-04-15T05:59:45.007Z,2.17
2023-04-15T06:01:53.823Z,2.40
2023-04-15T06:04:03.692Z,2.73
2023-04-15T06:06:12.983Z,2.73
2023-04-15T06:08:22.288Z,2.30
2023-04-15T06:10:31.138Z,2.50
2023-04-15T06:12:40.339Z,3.10
2023-04-15T06:14:51.488Z,2.57
2023-04-15T06:17:00.288Z,2.67
2023-04-15T06:19:08.827Z,2.63
2023-04-15T06:21:17.881Z,2.20
2023-04-15T06:23:28.130Z,2.30
2023-04-15T06:25:37.198Z,3.20
2023-04-15T06:27:46.557Z,2.20
2023-04-15T06:29:56.964Z,2.23
2023-04-15T06:32:05.678Z,2.80
2023-04-15T06:34:14.699Z,2.40
2023-04-15T06:36:23.835Z,2.40
2023-04-15T06:38:32.453Z,2.60
2023-04-15T06:40:41.409Z,2.40
2023-04-15T06:42:50.323Z,2.43
2023-04-15T06:45:01.086Z,2.50
2023-04-15T06:47:10.329Z,2.50
2023-04-15T06:49:19.638Z,2.50
2023-04-15T06:51:28.960Z,2.30
2023-04-15T06:53:41.545Z,2.57
2023-04-15T06:55:50.675Z,2.77
2023-04-15T06:57:59.675Z,3.10
2023-04-15T07:00:12.334Z,2.60
2023-04-15T07:02:21.329Z,2.33
2023-04-15T07:04:30.476Z,2.27
2023-04-15T07:06:40.149Z,2.30
2023-04-15T07:08:50.108Z,2.17
2023-04-15T07:10:58.768Z,2.30
2023-04-15T07:13:09.362Z,2.70
2023-04-15T07:15:20.114Z,2.40
2023-04-15T07:17:29.312Z,3.13
2023-04-15T07:19:38.493Z,2.27
2023-04-15T07:21:47.025Z,2.67
2023-04-15T07:23:55.779Z,2.70
2023-04-15T07:26:05.788Z,2.10
2023-04-15T07:28:14.702Z,2.40
2023-04-15T07:30:25.214Z,2.47
2023-04-15T07:32:34.371Z,2.73
2023-04-15T07:34:43.443Z,2.73
2023-04-15T07:36:52.188Z,2.50
2023-04-15T07:39:02.381Z,2.70
2023-04-15T07:41:11.462Z,2.43
2023-04-15T07:43:21.400Z,2.47
2023-04-15T07:45:32.170Z,2.13
2023-04-15T07:47:41.177Z,2.90
2023-04-15T07:49:51.857Z,2.50
2023-04-15T07:52:00.701Z,2.40
2023-04-15T07:54:09.296Z,2.83
2023-04-15T07:56:18.548Z,2.40
2023-04-15T07:58:27.582Z,2.77
2023-04-15T08:00:38.630Z,2.43
2023-04-15T08:02:48.710Z,2.40
2023-04-15T08:04:58.330Z,2.60
2023-04-15T08:07:07.260Z,2.37
2023-04-15T08:09:16.452Z,2.43
2023-04-15T08:11:25.131Z,2.10
2023-04-15T08:13:34.100Z,2.73
2023-04-15T08:15:44.676Z,3.03
2023-04-15T08:17:53.846Z,2.37
2023-04-15T08:20:02.891Z,2.60
2023-04-15T08:22:18.183Z,2.30
2023-04-15T08:24:27.738Z,2.40
2023-04-15T08:26:36.768Z,2.33
2023-04-15T08:28:46.820Z,2.60
2023-04-15T08:31:04.171Z,2.37
2023-04-15T08:33:12.792Z,2.57
2023-04-15T08:35:21.651Z,2.70
2023-04-15T08:37:30.241Z,2.80
2023-04-15T08:39:39.546Z,2.43
2023-04-15T08:41:49.145Z,2.63
2023-04-15T08:44:00.194Z,2.90
2023-04-15T08:46:11.941Z,2.30
2023-04-15T08:48:21.127Z,2.47
2023-04-15T08:50:32.066Z,2.77
2023-04-15T08:52:41.189Z,2.23
2023-04-15T08:54:50.211Z,2.43
2023-04-15T08:57:00.248Z,2.50
2023-04-15T08:59:09.170Z,2.23
2023-04-15T09:01:19.334Z,2.33
2023-04-15T09:03:28.750Z,2.80
2023-04-15T09:05:38.352Z,2.67
2023-04-15T09:07:47.831Z,2.50
2023-04-15T09:09:57.135Z,2.50
2023-04-15T09:12:06.438Z,3.03
2023-04-15T09:14:17.022Z,2.80
2023-04-15T09:16:28.071Z,3.00
2023-04-15T09:18:37.877Z,2.90
2023-04-15T09:20:46.486Z,2.70
2023-04-15T09:22:55.674Z,3.07
2023-04-15T09:25:04.694Z,2.73
2023-04-15T09:27:13.635Z,2.40
2023-04-15T09:29:23.045Z,2.80
2023-04-15T09:31:33.536Z,2.97
2023-04-15T09:33:56.846Z,2.90
2023-04-15T09:36:07.386Z,3.60
2023-04-15T09:38:16.416Z,3.00
2023-04-15T09:40:35.208Z,3.10
2023-04-15T09:42:57.324Z,3.00
2023-04-15T09:45:13.650Z,3.00
2023-04-15T09:47:33.468Z,2.10
2023-04-15T09:49:57.278Z,2.80
2023-04-15T09:52:06.648Z,2.73
2023-04-15T09:54:16.304Z,2.83
2023-04-15T09:56:25.505Z,2.83
2023-04-15T09:58:37.375Z,2.50
2023-04-15T10:00:46.044Z,2.60
2023-04-15T10:02:56.742Z,2.77
2023-04-15T10:05:06.607Z,2.43
2023-04-15T10:07:15.933Z,3.00
2023-04-15T10:09:25.188Z,3.10
2023-04-15T10:11:35.273Z,3.10
2023-04-15T10:13:44.301Z,2.50
2023-04-15T10:15:54.396Z,2.80
2023-04-15T10:18:07.505Z,2.60
2023-04-15T10:20:17.199Z,2.60
2023-04-15T10:22:26.789Z,2.97
2023-04-15T10:24:35.713Z,3.13
2023-04-15T10:26:45.105Z,2.60
2023-04-15T10:28:54.713Z,2.47
2023-04-15T10:31:03.733Z,2.73
2023-04-15T10:33:14.468Z,2.97
2023-04-15T10:35:23.997Z,2.70
2023-04-15T10:37:37.177Z,3.07
2023-04-15T10:39:46.423Z,3.40
2023-04-15T10:42:08.482Z,2.80
2023-04-15T10:44:17.427Z,2.80
2023-04-15T10:46:26.792Z,2.80
2023-04-15T10:48:37.533Z,2.90
2023-04-15T10:50:58.215Z,2.93
2023-04-15T10:53:07.113Z,2.70
2023-04-15T10:55:16.702Z,2.73
2023-04-15T10:57:26.263Z,3.00
2023-04-15T10:59:36.007Z,2.60
2023-04-15T11:01:54.911Z,2.30
2023-04-15T11:04:07.314Z,2.60
2023-04-15T11:06:16.757Z,2.20
2023-04-15T11:08:54.393Z,2.50
2023-04-15T11:11:03.200Z,2.40
2023-04-15T11:13:18.391Z,2.80
2023-04-15T11:15:30.219Z,3.00
2023-04-15T11:17:39.384Z,3.00
2023-04-15T11:19:49.969Z,2.50
2023-04-15T11:21:59.142Z,2.70
2023-04-15T11:24:08.318Z,3.20
2023-04-15T11:26:17.919Z,2.97
2023-04-15T11:28:28.620Z,2.70
2023-04-15T11:30:38.342Z,2.67
2023-04-15T11:32:47.339Z,3.00
2023-04-15T11:34:58.620Z,3.30
2023-04-15T11:37:08.162Z,2.77
2023-04-15T11:39:17.029Z,2.60
2023-04-15T11:41:26.406Z,2.60
2023-04-15T11:43:35.655Z,2.87
2023-04-15T11:45:51.976Z,2.83
2023-04-15T11:48:08.849Z,2.80
2023-04-15T11:50:20.115Z,2.73
2023-04-15T11:52:28.944Z,2.67
2023-04-15T11:54:37.681Z,3.07
2023-04-15T11:56:52.669Z,2.50
2023-04-15T11:59:02.207Z,2.63
2023-04-15T12:01:11.650Z,2.60
2023-04-15T12:03:21.781Z,3.07
2023-04-15T12:05:32.975Z,3.20
2023-04-15T12:07:57.244Z,2.60
2023-04-15T12:10:06.483Z,2.87
2023-04-15T12:12:15.616Z,2.97
2023-04-15T12:14:28.632Z,2.93
2023-04-15T12:16:48.815Z,2.40
2023-04-15T12:18:59.779Z,2.60
2023-04-15T12:21:13.639Z,2.90
2023-04-15T12:23:22.485Z,2.83
2023-04-15T12:25:36.973Z,2.50
2023-04-15T12:27:53.043Z,2.67
2023-04-15T12:30:06.097Z,2.70
2023-04-15T12:32:15.705Z,2.93
2023-04-15T12:34:31.213Z,2.60
2023-04-15T12:36:41.758Z,2.70
2023-04-15T12:38:50.659Z,2.80
2023-04-15T12:41:00.612Z,2.73
2023-04-15T12:43:09.635Z,2.80
2023-04-15T12:45:18.988Z,3.13
2023-04-15T12:47:27.576Z,2.50
2023-04-15T12:49:37.830Z,2.63
2023-04-15T12:51:49.422Z,2.83
2023-04-15T12:53:58.646Z,2.37
2023-04-15T12:56:08.025Z,2.37
2023-04-15T12:58:16.938Z,2.13
2023-04-15T13:00:25.930Z,2.40
2023-04-15T13:02:35.293Z,2.47
2023-04-15T13:04:44.606Z,2.37
2023-04-15T13:06:54.863Z,2.53
2023-04-15T13:09:05.810Z,2.60
2023-04-15T13:11:14.672Z,2.40
2023-04-15T13:13:23.756Z,2.87
2023-04-15T13:15:32.640Z,2.70
2023-04-15T13:17:41.624Z,2.93
2023-04-15T13:19:50.769Z,2.30
2023-04-15T13:22:00.928Z,2.50
2023-04-15T13:24:09.977Z,2.60
2023-04-15T13:26:18.737Z,2.27
2023-04-15T13:28:28.495Z,2.80
2023-04-15T13:30:37.652Z,2.20
2023-04-15T13:32:47.665Z,2.30
2023-04-15T13:34:58.563Z,2.57
2023-04-15T13:37:10.599Z,2.60
2023-04-15T13:39:19.969Z,2.80
2023-04-15T13:41:29.142Z,2.20
2023-04-15T13:43:38.058Z,2.20
2023-04-15T13:45:46.877Z,2.50
2023-04-15T13:47:55.550Z,2.83
2023-04-15T13:50:04.312Z,2.70
2023-04-15T13:52:15.422Z,2.53
2023-04-15T13:54:24.413Z,2.77
2023-04-15T13:56:47.117Z,2.53
2023-04-15T13:58:59.125Z,2.23
2023-04-15T14:01:08.454Z,2.83
2023-04-15T14:03:18.027Z,2.83
2023-04-15T14:05:26.800Z,2.60
2023-04-15T14:07:36.906Z,2.20
2023-04-15T14:09:46.572Z,2.63
2023-04-15T14:11:55.496Z,2.60
2023-04-15T14:14:05.277Z,2.77
2023-04-15T14:16:14.102Z,2.43
2023-04-15T14:18:23.275Z,2.47
2023-04-15T14:20:32.388Z,2.50
2023-04-15T14:22:43.384Z,2.47
2023-04-15T14:24:54.146Z,2.50
2023-04-15T14:27:03.745Z,2.50
2023-04-15T14:29:12.586Z,2.63
2023-04-15T14:31:21.677Z,2.33
2023-04-15T14:33:30.687Z,2.30
2023-04-15T14:35:39.764Z,2.33
2023-04-15T14:37:50.140Z,3.10
2023-04-15T14:39:59.052Z,2.33
2023-04-15T14:42:08.029Z,2.70
2023-04-15T14:44:17.661Z,2.77
2023-04-15T14:46:26.790Z,2.37
2023-04-15T14:48:35.689Z,2.50
2023-04-15T14:50:44.548Z,2.67
2023-04-15T14:52:55.107Z,2.77
2023-04-15T14:55:04.014Z,2.70
2023-04-15T14:57:12.688Z,2.80
2023-04-15T14:59:21.657Z,3.10
2023-04-15T15:01:30.778Z,2.67
2023-04-15T15:03:39.809Z,2.60
2023-04-15T15:05:48.799Z,2.30
2023-04-15T15:07:59.327Z,3.00
2023-04-15T15:10:09.498Z,2.60
2023-04-15T15:12:18.254Z,2.40
2023-04-15T15:14:27.265Z,2.40
2023-04-15T15:16:36.524Z,2.20
2023-04-15T15:18:45.332Z,2.40
2023-04-15T15:20:53.924Z,2.27
2023-04-15T15:23:04.391Z,2.00
2023-04-15T15:25:13.382Z,2.10
2023-04-15T15:27:22.472Z,2.30
2023-04-15T15:29:31.460Z,2.53
2023-04-15T15:31:40.493Z,2.33
2023-04-15T15:33:49.629Z,2.60
2023-04-15T15:35:59.947Z,2.60
2023-04-15T15:38:10.408Z,2.20
2023-04-15T15:40:19.620Z,2.27
2023-04-15T15:42:28.657Z,2.47
2023-04-15T15:44:38.598Z,2.20
2023-04-15T15:46:47.432Z,2.53
2023-04-15T15:48:56.117Z,2.20
2023-04-15T15:51:04.810Z,2.03
2023-04-15T15:53:20.660Z,2.03
2023-04-15T15:55:29.669Z,2.20
2023-04-15T15:57:39.101Z,2.17
2023-04-15T15:59:47.841Z,1.90
2023-04-15T16:01:56.801Z,2.40
2023-04-15T16:04:05.993Z,2.20
2023-04-15T16:06:14.975Z,2.93
2023-04-15T16:08:25.684Z,2.37
2023-04-15T16:10:35.117Z,2.40
2023-04-15T16:12:44.634Z,2.37
2023-04-15T16:14:53.587Z,2.40
2023-04-15T16:17:02.558Z,2.40
2023-04-15T16:19:11.581Z,2.10
2023-04-15T16:21:21.202Z,2.17
2023-04-15T16:23:31.743Z,2.57
2023-04-15T16:25:40.788Z,2.30
2023-04-15T16:27:57.672Z,2.50
2023-04-15T16:30:10.726Z,2.20
2023-04-15T16:32:19.450Z,2.20
2023-04-15T16:34:29.275Z,2.37
2023-04-15T16:36:40.694Z,2.57
2023-04-15T16:38:50.894Z,2.40
2023-04-15T16:41:01.302Z,2.60
2023-04-15T16:43:11.461Z,2.30
2023-04-15T16:45:20.423Z,2.40
2023-04-15T16:47:28.960Z,2.17
2023-04-15T16:49:37.770Z,2.33
2023-04-15T16:51:46.608Z,2.23
2023-04-15T16:53:56.725Z,2.63
2023-04-15T16:56:05.157Z,2.30
2023-04-15T16:58:13.893Z,2.63
2023-04-15T17:00:23.141Z,2.67
2023-04-15T17:02:32.228Z,2.33
2023-04-15T17:04:41.924Z,2.47
2023-04-15T17:06:50.452Z,2.20
2023-04-15T17:09:01.258Z,2.70
2023-04-15T17:11:10.076Z,2.53
2023-04-15T17:13:18.901Z,2.80
2023-04-15T17:15:29.175Z,2.30
2023-04-15T17:17:37.985Z,2.17
2023-04-15T17:19:46.748Z,2.47
2023-04-15T17:21:55.621Z,2.30
2023-04-15T17:24:07.247Z,2.30
2023-04-15T17:26:15.897Z,2.20
2023-04-15T17:28:24.787Z,2.27
2023-04-15T17:30:34.656Z,2.30
2023-04-15T17:32:43.145Z,2.23
2023-04-15T17:34:51.794Z,1.80
2023-04-15T17:37:00.142Z,2.00
2023-04-15T17:39:10.846Z,2.10
2023-04-15T17:41:19.662Z,2.13
2023-04-15T17:43:28.595Z,2.03
2023-04-15T17:45:37.245Z,2.10
2023-04-15T17:47:46.095Z,1.83
2023-04-15T17:49:54.687Z,2.27
2023-04-15T17:52:04.376Z,2.13
2023-04-15T17:54:14.778Z,2.13
2023-04-15T17:56:23.558Z,2.23
2023-04-15T17:58:33.277Z,2.00
2023-04-15T18:00:41.786Z,1.70
2023-04-15T18:02:50.586Z,2.17
2023-04-15T18:04:59.583Z,1.80
2023-04-15T18:07:08.696Z,1.80
2023-04-15T18:09:18.484Z,2.20
2023-04-15T18:11:26.801Z,2.00
2023-04-15T18:13:35.399Z,2.00
2023-04-15T18:15:46.790Z,2.00
2023-04-15T18:17:56.245Z,1.90
2023-04-15T18:20:05.415Z,2.30
2023-04-15T18:22:14.160Z,2.00
2023-04-15T18:24:24.284Z,2.30
2023-04-15T18:26:33.629Z,2.40
2023-04-15T18:28:42.272Z,2.17
2023-04-15T18:30:50.821Z,2.00
2023-04-15T18:32:59.721Z,2.27
2023-04-15T18:35:09.421Z,1.93
2023-04-15T18:37:18.382Z,2.20
2023-04-15T18:39:29.974Z,2.10
2023-04-15T18:41:38.880Z,2.13
2023-04-15T18:43:47.315Z,2.40
2023-04-15T18:45:55.903Z,2.60
2023-04-15T18:48:04.401Z,2.60
2023-04-15T18:50:13.257Z,2.57
2023-04-15T18:52:22.490Z,2.27
2023-04-15T18:54:33.693Z,2.00
2023-04-15T18:56:42.345Z,2.40
2023-04-15T18:59:10.213Z,1.80
2023-04-15T19:01:19.779Z,1.80
2023-04-15T19:03:29.379Z,2.00
2023-04-15T19:05:41.156Z,2.37
2023-04-15T19:07:52.073Z,2.13
2023-04-15T19:10:02.723Z,2.20
2023-04-15T19:12:11.334Z,2.17
2023-04-15T19:14:20.624Z,2.43
2023-04-15T19:16:29.610Z,2.40
2023-04-15T19:18:38.477Z,2.60
2023-04-15T19:20:47.305Z,2.13
2023-04-15T19:22:56.544Z,2.00
2023-04-15T19:25:07.765Z,2.33
2023-04-15T19:27:16.614Z,2.33
2023-04-15T19:29:26.060Z,2.47
2023-04-15T19:31:34.977Z,2.33
2023-04-15T19:33:44.270Z,2.50
2023-04-15T19:35:52.797Z,2.40
2023-04-15T19:38:01.356Z,2.50
2023-04-15T19:40:12.616Z,2.40
2023-04-15T19:42:21.696Z,2.43
2023-04-15T19:44:30.444Z,2.80
2023-04-15T19:46:39.341Z,2.30
2023-04-15T19:48:48.138Z,2.57
2023-04-15T19:50:58.091Z,2.10
2023-04-15T19:53:06.321Z,2.57
2023-04-15T19:55:16.957Z,2.53
2023-04-15T19:57:25.775Z,2.20
2023-04-15T19:59:34.462Z,2.33
2023-04-15T20:01:43.132Z,2.10
2023-04-15T20:03:54.443Z,2.50
2023-04-15T20:06:03.420Z,2.33
2023-04-15T20:08:12.653Z,2.30
2023-04-15T20:10:23.196Z,2.20
2023-04-15T20:12:50.221Z,2.50
2023-04-15T20:15:00.207Z,2.30
2023-04-15T20:17:09.015Z,2.63
2023-04-15T20:19:17.474Z,2.30
2023-04-15T20:21:25.917Z,2.13
2023-04-15T20:23:35.997Z,2.60
2023-04-15T20:25:46.588Z,2.27
2023-04-15T20:27:55.038Z,2.27
2023-04-15T20:30:05.234Z,2.27
2023-04-15T20:32:13.736Z,2.30
2023-04-15T20:34:22.630Z,2.50
2023-04-15T20:36:32.242Z,2.27
2023-04-15T20:38:40.975Z,1.93
2023-04-15T20:40:51.388Z,2.43
2023-04-15T20:42:59.810Z,2.93
2023-04-15T20:45:10.221Z,2.40
2023-04-15T20:47:19.336Z,2.50
2023-04-15T20:49:28.302Z,2.60
2023-04-15T20:51:38.222Z,2.70
2023-04-15T20:53:47.252Z,3.90
2023-04-15T20:55:57.576Z,5.50
2023-04-15T20:58:06.377Z,5.80
2023-04-15T21:00:15.236Z,3.97
2023-04-15T21:02:25.446Z,3.27
2023-04-15T21:04:33.921Z,4.00
2023-04-15T21:06:42.744Z,2.90
2023-04-15T21:08:52.445Z,3.27
2023-04-15T21:11:02.939Z,4.50
2023-04-15T21:13:13.403Z,3.60
2023-04-15T21:15:22.053Z,3.80
2023-04-15T21:17:30.800Z,3.27
2023-04-15T21:19:39.251Z,3.47
2023-04-15T21:21:47.939Z,3.10
2023-04-15T21:23:57.127Z,3.53
2023-04-15T21:26:07.140Z,3.47
2023-04-15T21:28:15.658Z,4.00
2023-04-15T21:30:25.709Z,3.10
2023-04-15T21:32:34.796Z,3.60
2023-04-15T21:34:43.560Z,3.67
2023-04-15T21:36:52.105Z,2.93
2023-04-15T21:39:01.396Z,3.40
2023-04-15T21:41:11.381Z,2.70
2023-04-15T21:43:22.087Z,3.03
2023-04-15T21:45:30.649Z,6.47
2023-04-15T21:47:56.783Z,3.87
2023-04-15T21:50:09.089Z,3.43
2023-04-15T21:52:17.817Z,2.87
2023-04-15T21:54:26.599Z,2.77
2023-04-15T21:56:38.026Z,2.80
2023-04-15T21:58:46.614Z,3.10
2023-04-15T22:01:00.551Z,3.13
2023-04-15T22:03:09.854Z,2.90
2023-04-15T22:05:19.076Z,2.67
2023-04-15T22:07:27.480Z,2.90
2023-04-15T22:09:35.896Z,2.80
2023-04-15T22:11:47.593Z,2.80
2023-04-15T22:13:57.169Z,3.80
2023-04-15T22:16:06.430Z,3.20
2023-04-15T22:18:15.861Z,2.73
2023-04-15T22:20:24.303Z,2.40
2023-04-15T22:22:44.120Z,2.37
2023-04-15T22:24:53.204Z,2.37
2023-04-15T22:27:03.626Z,2.87
2023-04-15T22:29:12.093Z,2.30
2023-04-15T22:31:21.126Z,2.30
2023-04-15T22:33:29.941Z,2.43
2023-04-15T22:35:39.140Z,2.37
2023-04-15T22:37:48.362Z,2.20
2023-04-15T22:39:56.833Z,2.07
2023-04-15T22:42:06.652Z,2.60
2023-04-15T22:44:15.348Z,2.13
2023-04-15T22:46:23.953Z,2.20
2023-04-15T22:48:32.329Z,2.73
2023-04-15T22:50:41.486Z,2.40
2023-04-15T22:52:50.203Z,1.90
2023-04-15T22:54:58.745Z,2.13
2023-04-15T22:57:09.102Z,2.10
2023-04-15T22:59:17.877Z,2.63
2023-04-15T23:01:26.569Z,2.43
2023-04-15T23:03:55.454Z,2.37
2023-04-15T23:06:03.832Z,2.17
2023-04-15T23:08:12.275Z,2.63
2023-04-15T23:10:21.030Z,2.37
2023-04-15T23:12:31.486Z,2.50
2023-04-15T23:14:40.050Z,2.50
2023-04-15T23:16:48.672Z,2.57
2023-04-15T23:18:57.802Z,2.60
2023-04-15T23:21:06.968Z,2.80
2023-04-15T23:23:15.811Z,2.67
2023-04-15T23:25:24.336Z,2.60
2023-04-15T23:27:34.409Z,2.50
2023-04-15T23:29:42.868Z,2.83
2023-04-15T23:31:51.400Z,2.63
2023-04-15T23:33:59.882Z,2.50
2023-04-15T23:36:08.807Z,2.43
2023-04-15T23:38:17.611Z,3.13
2023-04-15T23:40:26.109Z,2.80
2023-04-15T23:42:36.292Z,2.83
2023-04-15T23:44:45.223Z,3.10
2023-04-15T23:46:53.999Z,2.60
2023-04-15T23:49:03.250Z,3.33
2023-04-15T23:51:11.744Z,3.23
2023-04-15T23:53:20.266Z,3.60
2023-04-15T23:55:29.002Z,3.20
2023-04-15T23:57:40.985Z,3.10
2023-04-15T23:59:49.671Z,2.73
